sensor_id;sensor_type;location;lat;lon;timestamp;P1;durP1;ratioP1;P2;durP2;ratioP2
37164;SDS011;23057;48.554;14.454;2022-10-16T00:02:15;16.08;;;2.10;;
37164;SDS011;23057;48.554;14.454;2022-10-16T00:04:46;38.38;;;2.72;;
37164;SDS011;23057;48.554;14.454;2022-10-16T00:07:16;101.78;;;3.65;;
37164;SDS011;23057;48.554;14.454;2022-10-16T00:09:47;10.82;;;1.90;;
37164;SDS011;23057;48.554;14.454;2022-10-16T00:12:18;98.68;;;3.50;;
37164;SDS011;23057;48.554;14.454;2022-10-16T00:14:49;131.90;;;4.28;;
37164;SDS011;23057;48.554;14.454;2022-10-16T00:17:20;63.53;;;2.75;;
37164;SDS011;23057;48.554;14.454;2022-10-16T00:19:51;47.63;;;2.60;;
37164;SDS011;23057;48.554;14.454;2022-10-16T00:22:22;54.53;;;3.40;;
37164;SDS011;23057;48.554;14.454;2022-10-16T00:24:53;68.80;;;3.58;;
37164;SDS011;23057;48.554;14.454;2022-10-16T00:27:24;16.45;;;2.55;;
37164;SDS011;23057;48.554;14.454;2022-10-16T00:29:55;95.45;;;4.13;;
37164;SDS011;23057;48.554;14.454;2022-10-16T00:32:26;68.72;;;3.25;;
37164;SDS011;23057;48.554;14.454;2022-10-16T00:34:57;69.80;;;3.50;;
37164;SDS011;23057;48.554;14.454;2022-10-16T00:37:28;99.97;;;4.00;;
37164;SDS011;23057;48.554;14.454;2022-10-16T00:39:59;80.93;;;3.42;;
37164;SDS011;23057;48.554;14.454;2022-10-16T00:42:30;137.90;;;4.68;;
37164;SDS011;23057;48.554;14.454;2022-10-16T00:45:01;73.80;;;3.28;;
37164;SDS011;23057;48.554;14.454;2022-10-16T00:50:22;96.80;;;3.28;;
37164;SDS011;23057;48.554;14.454;2022-10-16T00:53:03;96.50;;;3.00;;
37164;SDS011;23057;48.554;14.454;2022-10-16T00:55:34;21.85;;;1.60;;
37164;SDS011;23057;48.554;14.454;2022-10-16T00:58:06;22.35;;;1.63;;
37164;SDS011;23057;48.554;14.454;2022-10-16T01:00:37;27.30;;;1.63;;
37164;SDS011;23057;48.554;14.454;2022-10-16T01:06:23;33.75;;;2.17;;
37164;SDS011;23057;48.554;14.454;2022-10-16T01:09:17;18.88;;;2.03;;
37164;SDS011;23057;48.554;14.454;2022-10-16T01:12:36;33.40;;;2.13;;
37164;SDS011;23057;48.554;14.454;2022-10-16T01:15:44;33.58;;;2.40;;
37164;SDS011;23057;48.554;14.454;2022-10-16T01:21:06;48.50;;;2.70;;
37164;SDS011;23057;48.554;14.454;2022-10-16T01:35:42;110.32;;;3.88;;
37164;SDS011;23057;48.554;14.454;2022-10-16T01:41:10;14.55;;;1.60;;
37164;SDS011;23057;48.554;14.454;2022-10-16T01:44:11;17.13;;;2.08;;
37164;SDS011;23057;48.554;14.454;2022-10-16T01:46:57;42.85;;;2.85;;
37164;SDS011;23057;48.554;14.454;2022-10-16T01:49:31;16.52;;;2.35;;
37164;SDS011;23057;48.554;14.454;2022-10-16T01:52:09;34.88;;;2.80;;
37164;SDS011;23057;48.554;14.454;2022-10-16T01:54:50;39.03;;;2.63;;
37164;SDS011;23057;48.554;14.454;2022-10-16T01:57:26;45.72;;;2.63;;
37164;SDS011;23057;48.554;14.454;2022-10-16T02:00:04;21.92;;;2.05;;
37164;SDS011;23057;48.554;14.454;2022-10-16T02:02:43;35.88;;;2.80;;
37164;SDS011;23057;48.554;14.454;2022-10-16T02:08:07;33.15;;;2.30;;
37164;SDS011;23057;48.554;14.454;2022-10-16T02:10:39;26.50;;;1.98;;
37164;SDS011;23057;48.554;14.454;2022-10-16T02:13:11;41.78;;;2.45;;
37164;SDS011;23057;48.554;14.454;2022-10-16T02:15:52;59.42;;;3.25;;
37164;SDS011;23057;48.554;14.454;2022-10-16T02:18:23;64.60;;;2.67;;
37164;SDS011;23057;48.554;14.454;2022-10-16T02:27:03;62.35;;;2.42;;
37164;SDS011;23057;48.554;14.454;2022-10-16T02:30:14;10.00;;;1.92;;
37164;SDS011;23057;48.554;14.454;2022-10-16T02:33:14;20.77;;;2.10;;
37164;SDS011;23057;48.554;14.454;2022-10-16T02:35:50;31.10;;;2.95;;
37164;SDS011;23057;48.554;14.454;2022-10-16T02:38:24;17.63;;;2.72;;
37164;SDS011;23057;48.554;14.454;2022-10-16T02:40:57;6.55;;;3.10;;
37164;SDS011;23057;48.554;14.454;2022-10-16T02:43:28;5.78;;;2.05;;
37164;SDS011;23057;48.554;14.454;2022-10-16T02:46:00;2.67;;;1.40;;
37164;SDS011;23057;48.554;14.454;2022-10-16T02:48:31;6.28;;;2.00;;
37164;SDS011;23057;48.554;14.454;2022-10-16T02:51:02;2.88;;;1.95;;
37164;SDS011;23057;48.554;14.454;2022-10-16T02:53:33;35.78;;;2.38;;
37164;SDS011;23057;48.554;14.454;2022-10-16T02:56:04;7.85;;;1.95;;
37164;SDS011;23057;48.554;14.454;2022-10-16T02:58:35;10.68;;;2.17;;
37164;SDS011;23057;48.554;14.454;2022-10-16T03:01:06;31.95;;;2.70;;
37164;SDS011;23057;48.554;14.454;2022-10-16T03:03:37;41.45;;;3.00;;
37164;SDS011;23057;48.554;14.454;2022-10-16T03:06:08;42.28;;;2.78;;
37164;SDS011;23057;48.554;14.454;2022-10-16T03:08:39;39.05;;;2.60;;
37164;SDS011;23057;48.554;14.454;2022-10-16T03:11:10;8.48;;;1.73;;
37164;SDS011;23057;48.554;14.454;2022-10-16T03:13:41;30.35;;;1.90;;
37164;SDS011;23057;48.554;14.454;2022-10-16T03:16:12;10.25;;;1.73;;
37164;SDS011;23057;48.554;14.454;2022-10-16T03:18:43;2.08;;;1.73;;
37164;SDS011;23057;48.554;14.454;2022-10-16T03:21:18;6.57;;;1.58;;
37164;SDS011;23057;48.554;14.454;2022-10-16T03:23:48;30.08;;;1.88;;
37164;SDS011;23057;48.554;14.454;2022-10-16T03:26:19;5.20;;;1.50;;
37164;SDS011;23057;48.554;14.454;2022-10-16T03:28:50;10.85;;;1.73;;
37164;SDS011;23057;48.554;14.454;2022-10-16T03:31:21;24.65;;;1.95;;
37164;SDS011;23057;48.554;14.454;2022-10-16T03:33:52;16.17;;;1.63;;
37164;SDS011;23057;48.554;14.454;2022-10-16T03:36:23;93.00;;;3.67;;
37164;SDS011;23057;48.554;14.454;2022-10-16T03:38:54;115.70;;;3.70;;
37164;SDS011;23057;48.554;14.454;2022-10-16T03:41:25;68.68;;;2.67;;
37164;SDS011;23057;48.554;14.454;2022-10-16T03:43:56;69.07;;;2.92;;
37164;SDS011;23057;48.554;14.454;2022-10-16T03:46:26;103.85;;;3.30;;
37164;SDS011;23057;48.554;14.454;2022-10-16T03:48:57;113.78;;;3.35;;
37164;SDS011;23057;48.554;14.454;2022-10-16T03:51:28;101.25;;;3.60;;
37164;SDS011;23057;48.554;14.454;2022-10-16T03:53:59;90.85;;;3.15;;
37164;SDS011;23057;48.554;14.454;2022-10-16T03:56:30;61.50;;;2.88;;
37164;SDS011;23057;48.554;14.454;2022-10-16T03:59:01;68.13;;;2.67;;
37164;SDS011;23057;48.554;14.454;2022-10-16T04:01:32;71.35;;;2.38;;
37164;SDS011;23057;48.554;14.454;2022-10-16T04:04:03;55.75;;;2.10;;
37164;SDS011;23057;48.554;14.454;2022-10-16T04:06:34;31.50;;;1.60;;
37164;SDS011;23057;48.554;14.454;2022-10-16T04:09:05;31.15;;;1.85;;
37164;SDS011;23057;48.554;14.454;2022-10-16T04:11:35;34.28;;;1.60;;
37164;SDS011;23057;48.554;14.454;2022-10-16T04:14:06;33.05;;;2.08;;
37164;SDS011;23057;48.554;14.454;2022-10-16T04:16:37;60.63;;;2.90;;
37164;SDS011;23057;48.554;14.454;2022-10-16T04:19:09;61.85;;;2.38;;
37164;SDS011;23057;48.554;14.454;2022-10-16T04:21:41;123.70;;;3.65;;
37164;SDS011;23057;48.554;14.454;2022-10-16T04:24:12;77.90;;;2.88;;
37164;SDS011;23057;48.554;14.454;2022-10-16T04:26:43;85.25;;;2.75;;
37164;SDS011;23057;48.554;14.454;2022-10-16T04:29:13;28.25;;;1.38;;
37164;SDS011;23057;48.554;14.454;2022-10-16T04:31:44;50.05;;;1.85;;
37164;SDS011;23057;48.554;14.454;2022-10-16T04:34:16;29.75;;;1.50;;
37164;SDS011;23057;48.554;14.454;2022-10-16T04:36:47;45.45;;;2.22;;
37164;SDS011;23057;48.554;14.454;2022-10-16T04:39:21;13.65;;;1.40;;
37164;SDS011;23057;48.554;14.454;2022-10-16T04:41:52;20.75;;;2.05;;
37164;SDS011;23057;48.554;14.454;2022-10-16T04:44:23;13.38;;;1.60;;
37164;SDS011;23057;48.554;14.454;2022-10-16T04:46:54;36.92;;;2.63;;
37164;SDS011;23057;48.554;14.454;2022-10-16T04:49:25;27.70;;;2.55;;
37164;SDS011;23057;48.554;14.454;2022-10-16T04:51:56;10.40;;;2.10;;
37164;SDS011;23057;48.554;14.454;2022-10-16T04:54:27;30.08;;;2.08;;
37164;SDS011;23057;48.554;14.454;2022-10-16T04:56:58;19.42;;;1.88;;
37164;SDS011;23057;48.554;14.454;2022-10-16T04:59:29;2.17;;;1.50;;
37164;SDS011;23057;48.554;14.454;2022-10-16T05:01:59;2.35;;;1.58;;
37164;SDS011;23057;48.554;14.454;2022-10-16T05:04:30;1.92;;;1.48;;
37164;SDS011;23057;48.554;14.454;2022-10-16T05:07:01;5.97;;;1.70;;
37164;SDS011;23057;48.554;14.454;2022-10-16T05:09:32;17.33;;;2.42;;
37164;SDS011;23057;48.554;14.454;2022-10-16T05:12:03;109.18;;;3.88;;
37164;SDS011;23057;48.554;14.454;2022-10-16T05:14:34;5.07;;;1.70;;
37164;SDS011;23057;48.554;14.454;2022-10-16T05:17:05;111.40;;;3.42;;
37164;SDS011;23057;48.554;14.454;2022-10-16T05:19:36;21.73;;;1.65;;
37164;SDS011;23057;48.554;14.454;2022-10-16T05:22:07;134.48;;;3.83;;
37164;SDS011;23057;48.554;14.454;2022-10-16T05:24:38;109.68;;;3.25;;
37164;SDS011;23057;48.554;14.454;2022-10-16T05:27:09;38.88;;;1.77;;
37164;SDS011;23057;48.554;14.454;2022-10-16T05:29:41;9.95;;;1.25;;
37164;SDS011;23057;48.554;14.454;2022-10-16T05:32:12;1.45;;;1.10;;
37164;SDS011;23057;48.554;14.454;2022-10-16T05:34:48;9.20;;;1.45;;
37164;SDS011;23057;48.554;14.454;2022-10-16T05:37:21;8.88;;;2.42;;
37164;SDS011;23057;48.554;14.454;2022-10-16T05:39:51;11.45;;;2.67;;
37164;SDS011;23057;48.554;14.454;2022-10-16T05:42:22;19.98;;;1.75;;
37164;SDS011;23057;48.554;14.454;2022-10-16T05:44:53;47.38;;;3.00;;
37164;SDS011;23057;48.554;14.454;2022-10-16T05:47:24;62.83;;;4.00;;
37164;SDS011;23057;48.554;14.454;2022-10-16T05:49:55;55.67;;;3.90;;
37164;SDS011;23057;48.554;14.454;2022-10-16T05:52:26;165.32;;;6.90;;
37164;SDS011;23057;48.554;14.454;2022-10-16T05:54:57;5.50;;;2.90;;
37164;SDS011;23057;48.554;14.454;2022-10-16T05:57:28;5.47;;;2.47;;
37164;SDS011;23057;48.554;14.454;2022-10-16T05:59:59;6.78;;;2.50;;
37164;SDS011;23057;48.554;14.454;2022-10-16T06:02:30;31.27;;;4.15;;
37164;SDS011;23057;48.554;14.454;2022-10-16T06:05:01;24.83;;;4.00;;
37164;SDS011;23057;48.554;14.454;2022-10-16T06:07:35;31.52;;;3.88;;
37164;SDS011;23057;48.554;14.454;2022-10-16T06:10:07;39.90;;;3.92;;
37164;SDS011;23057;48.554;14.454;2022-10-16T06:12:38;14.52;;;3.25;;
37164;SDS011;23057;48.554;14.454;2022-10-16T06:15:09;9.57;;;2.95;;
37164;SDS011;23057;48.554;14.454;2022-10-16T06:17:40;15.30;;;2.95;;
37164;SDS011;23057;48.554;14.454;2022-10-16T06:20:11;6.18;;;2.60;;
37164;SDS011;23057;48.554;14.454;2022-10-16T06:22:42;5.97;;;2.42;;
37164;SDS011;23057;48.554;14.454;2022-10-16T06:25:13;5.43;;;2.67;;
37164;SDS011;23057;48.554;14.454;2022-10-16T06:27:44;20.75;;;3.50;;
37164;SDS011;23057;48.554;14.454;2022-10-16T06:30:15;9.13;;;4.28;;
37164;SDS011;23057;48.554;14.454;2022-10-16T06:32:46;3.00;;;1.90;;
37164;SDS011;23057;48.554;14.454;2022-10-16T06:35:17;3.33;;;1.70;;
37164;SDS011;23057;48.554;14.454;2022-10-16T06:37:48;3.17;;;1.45;;
37164;SDS011;23057;48.554;14.454;2022-10-16T06:40:19;3.58;;;2.40;;
37164;SDS011;23057;48.554;14.454;2022-10-16T06:42:50;3.60;;;2.70;;
37164;SDS011;23057;48.554;14.454;2022-10-16T06:45:21;4.22;;;2.78;;
37164;SDS011;23057;48.554;14.454;2022-10-16T06:47:52;4.50;;;3.05;;
37164;SDS011;23057;48.554;14.454;2022-10-16T06:50:23;4.72;;;3.70;;
37164;SDS011;23057;48.554;14.454;2022-10-16T06:52:54;3.22;;;2.60;;
37164;SDS011;23057;48.554;14.454;2022-10-16T06:55:25;5.68;;;2.70;;
37164;SDS011;23057;48.554;14.454;2022-10-16T06:57:56;4.65;;;2.60;;
37164;SDS011;23057;48.554;14.454;2022-10-16T07:00:26;4.70;;;1.58;;
37164;SDS011;23057;48.554;14.454;2022-10-16T07:02:57;2.45;;;1.83;;
37164;SDS011;23057;48.554;14.454;2022-10-16T07:05:28;1.70;;;1.15;;
37164;SDS011;23057;48.554;14.454;2022-10-16T07:07:59;2.85;;;1.98;;
37164;SDS011;23057;48.554;14.454;2022-10-16T07:10:30;4.00;;;2.30;;
37164;SDS011;23057;48.554;14.454;2022-10-16T07:13:02;3.65;;;1.30;;
37164;SDS011;23057;48.554;14.454;2022-10-16T07:15:33;2.42;;;1.55;;
37164;SDS011;23057;48.554;14.454;2022-10-16T07:18:04;1.90;;;1.20;;
37164;SDS011;23057;48.554;14.454;2022-10-16T07:20:35;5.72;;;1.40;;
37164;SDS011;23057;48.554;14.454;2022-10-16T07:23:07;2.33;;;1.67;;
37164;SDS011;23057;48.554;14.454;2022-10-16T07:25:38;2.03;;;1.10;;
37164;SDS011;23057;48.554;14.454;2022-10-16T07:28:09;5.15;;;1.63;;
37164;SDS011;23057;48.554;14.454;2022-10-16T07:30:40;2.17;;;1.27;;
37164;SDS011;23057;48.554;14.454;2022-10-16T07:33:10;3.53;;;1.60;;
37164;SDS011;23057;48.554;14.454;2022-10-16T07:35:51;3.22;;;1.55;;
37164;SDS011;23057;48.554;14.454;2022-10-16T07:38:24;1.60;;;1.20;;
37164;SDS011;23057;48.554;14.454;2022-10-16T07:40:56;3.78;;;1.25;;
37164;SDS011;23057;48.554;14.454;2022-10-16T07:43:29;1.95;;;1.27;;
37164;SDS011;23057;48.554;14.454;2022-10-16T07:46:00;5.32;;;1.33;;
37164;SDS011;23057;48.554;14.454;2022-10-16T07:48:32;2.42;;;1.10;;
37164;SDS011;23057;48.554;14.454;2022-10-16T07:51:05;1.35;;;1.00;;
37164;SDS011;23057;48.554;14.454;2022-10-16T07:53:37;1.77;;;1.13;;
37164;SDS011;23057;48.554;14.454;2022-10-16T07:56:08;2.15;;;1.02;;
37164;SDS011;23057;48.554;14.454;2022-10-16T07:58:41;2.13;;;1.30;;
37164;SDS011;23057;48.554;14.454;2022-10-16T08:01:13;2.00;;;1.20;;
37164;SDS011;23057;48.554;14.454;2022-10-16T08:03:51;3.28;;;1.02;;
37164;SDS011;23057;48.554;14.454;2022-10-16T08:06:23;2.65;;;1.48;;
37164;SDS011;23057;48.554;14.454;2022-10-16T08:08:55;2.08;;;1.10;;
37164;SDS011;23057;48.554;14.454;2022-10-16T08:11:26;1.60;;;1.10;;
37164;SDS011;23057;48.554;14.454;2022-10-16T08:13:57;1.70;;;1.10;;
37164;SDS011;23057;48.554;14.454;2022-10-16T08:16:28;1.80;;;0.98;;
37164;SDS011;23057;48.554;14.454;2022-10-16T08:18:59;3.58;;;1.05;;
37164;SDS011;23057;48.554;14.454;2022-10-16T08:21:29;2.30;;;1.50;;
37164;SDS011;23057;48.554;14.454;2022-10-16T08:24:00;1.80;;;1.02;;
37164;SDS011;23057;48.554;14.454;2022-10-16T08:26:31;2.67;;;1.60;;
37164;SDS011;23057;48.554;14.454;2022-10-16T08:29:02;4.03;;;1.42;;
37164;SDS011;23057;48.554;14.454;2022-10-16T08:31:33;3.72;;;1.77;;
37164;SDS011;23057;48.554;14.454;2022-10-16T08:34:04;3.08;;;1.35;;
37164;SDS011;23057;48.554;14.454;2022-10-16T08:36:34;2.50;;;1.58;;
37164;SDS011;23057;48.554;14.454;2022-10-16T08:39:05;2.88;;;1.42;;
37164;SDS011;23057;48.554;14.454;2022-10-16T08:41:59;3.78;;;1.17;;
37164;SDS011;23057;48.554;14.454;2022-10-16T08:45:13;1.58;;;0.82;;
37164;SDS011;23057;48.554;14.454;2022-10-16T08:51:26;1.73;;;0.98;;
37164;SDS011;23057;48.554;14.454;2022-10-16T08:54:11;2.05;;;1.10;;
37164;SDS011;23057;48.554;14.454;2022-10-16T08:57:11;0.93;;;0.80;;
37164;SDS011;23057;48.554;14.454;2022-10-16T08:59:50;1.27;;;0.90;;
37164;SDS011;23057;48.554;14.454;2022-10-16T09:02:32;2.60;;;0.90;;
37164;SDS011;23057;48.554;14.454;2022-10-16T09:05:48;1.23;;;0.80;;
37164;SDS011;23057;48.554;14.454;2022-10-16T09:12:26;1.58;;;1.15;;
37164;SDS011;23057;48.554;14.454;2022-10-16T09:15:29;1.08;;;0.80;;
37164;SDS011;23057;48.554;14.454;2022-10-16T09:21:36;0.93;;;0.70;;
37164;SDS011;23057;48.554;14.454;2022-10-16T09:24:15;1.10;;;0.80;;
37164;SDS011;23057;48.554;14.454;2022-10-16T09:26:55;1.10;;;0.75;;
37164;SDS011;23057;48.554;14.454;2022-10-16T09:29:26;1.73;;;1.00;;
37164;SDS011;23057;48.554;14.454;2022-10-16T09:31:57;1.23;;;0.90;;
37164;SDS011;23057;48.554;14.454;2022-10-16T09:34:53;1.67;;;1.05;;
37164;SDS011;23057;48.554;14.454;2022-10-16T09:37:27;2.38;;;0.63;;
37164;SDS011;23057;48.554;14.454;2022-10-16T09:39:58;0.65;;;0.60;;
37164;SDS011;23057;48.554;14.454;2022-10-16T09:42:33;1.02;;;0.60;;
37164;SDS011;23057;48.554;14.454;2022-10-16T09:45:18;1.13;;;0.52;;
37164;SDS011;23057;48.554;14.454;2022-10-16T09:47:54;3.20;;;1.50;;
37164;SDS011;23057;48.554;14.454;2022-10-16T09:50:26;1.45;;;0.93;;
37164;SDS011;23057;48.554;14.454;2022-10-16T09:53:11;1.27;;;0.60;;
37164;SDS011;23057;48.554;14.454;2022-10-16T09:55:48;2.65;;;0.68;;
37164;SDS011;23057;48.554;14.454;2022-10-16T09:58:21;1.58;;;0.55;;
37164;SDS011;23057;48.554;14.454;2022-10-16T10:00:54;0.38;;;0.32;;
37164;SDS011;23057;48.554;14.454;2022-10-16T10:03:36;1.02;;;0.52;;
37164;SDS011;23057;48.554;14.454;2022-10-16T10:06:23;2.88;;;0.63;;
37164;SDS011;23057;48.554;14.454;2022-10-16T10:09:25;1.80;;;0.60;;
37164;SDS011;23057;48.554;14.454;2022-10-16T10:12:19;2.45;;;0.50;;
37164;SDS011;23057;48.554;14.454;2022-10-16T10:15:10;2.70;;;0.60;;
37164;SDS011;23057;48.554;14.454;2022-10-16T10:17:52;3.55;;;1.48;;
37164;SDS011;23057;48.554;14.454;2022-10-16T10:20:27;0.85;;;0.60;;
37164;SDS011;23057;48.554;14.454;2022-10-16T10:23:22;0.60;;;0.55;;
37164;SDS011;23057;48.554;14.454;2022-10-16T10:28:50;1.60;;;0.75;;
37164;SDS011;23057;48.554;14.454;2022-10-16T10:35:25;1.25;;;0.70;;
37164;SDS011;23057;48.554;14.454;2022-10-16T10:47:05;0.98;;;0.88;;
37164;SDS011;23057;48.554;14.454;2022-10-16T10:50:39;2.97;;;0.73;;
37164;SDS011;23057;48.554;14.454;2022-10-16T10:53:53;1.27;;;0.50;;
37164;SDS011;23057;48.554;14.454;2022-10-16T10:56:47;0.75;;;0.60;;
37164;SDS011;23057;48.554;14.454;2022-10-16T11:06:04;1.23;;;0.70;;
37164;SDS011;23057;48.554;14.454;2022-10-16T11:09:14;1.02;;;0.73;;
37164;SDS011;23057;48.554;14.454;2022-10-16T11:12:17;1.13;;;0.75;;
37164;SDS011;23057;48.554;14.454;2022-10-16T11:15:07;2.25;;;0.70;;
37164;SDS011;23057;48.554;14.454;2022-10-16T11:17:55;0.63;;;0.38;;
37164;SDS011;23057;48.554;14.454;2022-10-16T11:21:22;4.00;;;0.80;;
37164;SDS011;23057;48.554;14.454;2022-10-16T11:24:01;2.40;;;0.47;;
37164;SDS011;23057;48.554;14.454;2022-10-16T11:27:00;0.80;;;0.50;;
37164;SDS011;23057;48.554;14.454;2022-10-16T11:29:46;1.80;;;0.50;;
37164;SDS011;23057;48.554;14.454;2022-10-16T11:32:33;0.63;;;0.50;;
37164;SDS011;23057;48.554;14.454;2022-10-16T11:38:29;0.90;;;0.50;;
37164;SDS011;23057;48.554;14.454;2022-10-16T11:41:53;1.00;;;0.70;;
37164;SDS011;23057;48.554;14.454;2022-10-16T11:44:44;1.35;;;0.70;;
37164;SDS011;23057;48.554;14.454;2022-10-16T11:47:44;3.85;;;0.73;;
37164;SDS011;23057;48.554;14.454;2022-10-16T11:50:52;0.60;;;0.50;;
37164;SDS011;23057;48.554;14.454;2022-10-16T11:53:44;5.32;;;2.80;;
37164;SDS011;23057;48.554;14.454;2022-10-16T11:56:31;0.88;;;0.52;;
37164;SDS011;23057;48.554;14.454;2022-10-16T11:59:17;2.53;;;0.60;;
37164;SDS011;23057;48.554;14.454;2022-10-16T12:02:36;1.33;;;0.40;;
37164;SDS011;23057;48.554;14.454;2022-10-16T12:08:53;0.73;;;0.55;;
37164;SDS011;23057;48.554;14.454;2022-10-16T12:16:52;0.63;;;0.40;;
37164;SDS011;23057;48.554;14.454;2022-10-16T12:19:32;0.73;;;0.50;;
37164;SDS011;23057;48.554;14.454;2022-10-16T12:22:03;1.83;;;0.73;;
37164;SDS011;23057;48.554;14.454;2022-10-16T12:24:39;1.15;;;0.60;;
37164;SDS011;23057;48.554;14.454;2022-10-16T12:27:29;1.10;;;0.50;;
37164;SDS011;23057;48.554;14.454;2022-10-16T12:30:03;1.17;;;0.77;;
37164;SDS011;23057;48.554;14.454;2022-10-16T12:32:37;0.43;;;0.30;;
37164;SDS011;23057;48.554;14.454;2022-10-16T12:35:20;0.75;;;0.40;;
37164;SDS011;23057;48.554;14.454;2022-10-16T12:38:05;0.38;;;0.30;;
37164;SDS011;23057;48.554;14.454;2022-10-16T12:41:39;0.60;;;0.30;;
37164;SDS011;23057;48.554;14.454;2022-10-16T12:44:23;0.47;;;0.45;;
37164;SDS011;23057;48.554;14.454;2022-10-16T12:46:56;1.00;;;0.60;;
37164;SDS011;23057;48.554;14.454;2022-10-16T12:49:31;1.77;;;0.57;;
37164;SDS011;23057;48.554;14.454;2022-10-16T12:52:27;1.35;;;0.57;;
37164;SDS011;23057;48.554;14.454;2022-10-16T12:55:15;4.90;;;0.80;;
37164;SDS011;23057;48.554;14.454;2022-10-16T13:03:46;1.80;;;0.60;;
37164;SDS011;23057;48.554;14.454;2022-10-16T13:20:06;0.40;;;0.32;;
37164;SDS011;23057;48.554;14.454;2022-10-16T13:30:20;4.10;;;0.40;;
37164;SDS011;23057;48.554;14.454;2022-10-16T13:35:50;1.45;;;0.52;;
37164;SDS011;23057;48.554;14.454;2022-10-16T13:38:27;0.82;;;0.55;;
37164;SDS011;23057;48.554;14.454;2022-10-16T13:41:04;1.48;;;0.70;;
37164;SDS011;23057;48.554;14.454;2022-10-16T13:43:51;0.93;;;0.50;;
37164;SDS011;23057;48.554;14.454;2022-10-16T13:46:26;2.25;;;0.60;;
37164;SDS011;23057;48.554;14.454;2022-10-16T13:49:01;1.05;;;0.70;;
37164;SDS011;23057;48.554;14.454;2022-10-16T13:51:35;2.00;;;0.90;;
37164;SDS011;23057;48.554;14.454;2022-10-16T13:54:10;3.80;;;0.50;;
37164;SDS011;23057;48.554;14.454;2022-10-16T13:56:41;0.90;;;0.70;;
37164;SDS011;23057;48.554;14.454;2022-10-16T13:59:25;1.33;;;0.80;;
37164;SDS011;23057;48.554;14.454;2022-10-16T14:02:26;2.95;;;0.85;;
37164;SDS011;23057;48.554;14.454;2022-10-16T14:05:09;0.85;;;0.60;;
37164;SDS011;23057;48.554;14.454;2022-10-16T14:07:41;1.40;;;0.90;;
37164;SDS011;23057;48.554;14.454;2022-10-16T14:10:29;0.80;;;0.45;;
37164;SDS011;23057;48.554;14.454;2022-10-16T14:13:04;0.68;;;0.50;;
37164;SDS011;23057;48.554;14.454;2022-10-16T14:15:45;2.50;;;0.50;;
37164;SDS011;23057;48.554;14.454;2022-10-16T14:18:22;2.00;;;0.75;;
37164;SDS011;23057;48.554;14.454;2022-10-16T14:21:02;0.73;;;0.50;;
37164;SDS011;23057;48.554;14.454;2022-10-16T14:23:41;0.82;;;0.60;;
37164;SDS011;23057;48.554;14.454;2022-10-16T14:26:14;1.88;;;0.65;;
37164;SDS011;23057;48.554;14.454;2022-10-16T14:29:01;1.42;;;0.70;;
37164;SDS011;23057;48.554;14.454;2022-10-16T14:31:43;1.05;;;0.63;;
37164;SDS011;23057;48.554;14.454;2022-10-16T14:34:34;1.90;;;0.70;;
37164;SDS011;23057;48.554;14.454;2022-10-16T14:40:00;1.02;;;0.55;;
37164;SDS011;23057;48.554;14.454;2022-10-16T14:42:34;1.38;;;0.70;;
37164;SDS011;23057;48.554;14.454;2022-10-16T14:45:07;1.15;;;0.80;;
37164;SDS011;23057;48.554;14.454;2022-10-16T14:47:49;0.88;;;0.70;;
37164;SDS011;23057;48.554;14.454;2022-10-16T14:50:26;2.10;;;0.80;;
37164;SDS011;23057;48.554;14.454;2022-10-16T14:52:58;1.70;;;0.60;;
37164;SDS011;23057;48.554;14.454;2022-10-16T14:55:29;2.50;;;0.80;;
37164;SDS011;23057;48.554;14.454;2022-10-16T14:58:00;1.67;;;0.63;;
37164;SDS011;23057;48.554;14.454;2022-10-16T15:00:31;1.85;;;0.77;;
37164;SDS011;23057;48.554;14.454;2022-10-16T15:03:02;1.85;;;0.85;;
37164;SDS011;23057;48.554;14.454;2022-10-16T15:05:33;2.38;;;0.70;;
37164;SDS011;23057;48.554;14.454;2022-10-16T15:08:04;1.17;;;0.80;;
37164;SDS011;23057;48.554;14.454;2022-10-16T15:10:38;0.80;;;0.52;;
37164;SDS011;23057;48.554;14.454;2022-10-16T15:13:13;3.05;;;1.45;;
37164;SDS011;23057;48.554;14.454;2022-10-16T15:15:45;1.63;;;0.70;;
37164;SDS011;23057;48.554;14.454;2022-10-16T15:18:19;3.53;;;0.68;;
37164;SDS011;23057;48.554;14.454;2022-10-16T15:20:50;1.10;;;0.70;;
37164;SDS011;23057;48.554;14.454;2022-10-16T15:23:22;3.70;;;0.68;;
37164;SDS011;23057;48.554;14.454;2022-10-16T15:25:54;2.50;;;0.60;;
37164;SDS011;23057;48.554;14.454;2022-10-16T15:28:26;1.77;;;0.60;;
37164;SDS011;23057;48.554;14.454;2022-10-16T15:30:57;1.65;;;1.10;;
37164;SDS011;23057;48.554;14.454;2022-10-16T15:33:28;2.25;;;1.45;;
37164;SDS011;23057;48.554;14.454;2022-10-16T15:36:02;1.95;;;1.30;;
37164;SDS011;23057;48.554;14.454;2022-10-16T15:38:34;1.80;;;1.27;;
37164;SDS011;23057;48.554;14.454;2022-10-16T15:41:06;1.88;;;1.45;;
37164;SDS011;23057;48.554;14.454;2022-10-16T15:43:37;2.72;;;1.42;;
37164;SDS011;23057;48.554;14.454;2022-10-16T15:46:08;2.30;;;1.55;;
37164;SDS011;23057;48.554;14.454;2022-10-16T15:48:44;3.95;;;1.42;;
37164;SDS011;23057;48.554;14.454;2022-10-16T15:51:16;2.40;;;1.08;;
37164;SDS011;23057;48.554;14.454;2022-10-16T15:53:48;5.65;;;2.17;;
37164;SDS011;23057;48.554;14.454;2022-10-16T15:56:20;4.32;;;1.98;;
37164;SDS011;23057;48.554;14.454;2022-10-16T15:58:52;3.45;;;1.77;;
37164;SDS011;23057;48.554;14.454;2022-10-16T16:01:23;3.03;;;1.63;;
37164;SDS011;23057;48.554;14.454;2022-10-16T16:03:55;4.95;;;1.15;;
37164;SDS011;23057;48.554;14.454;2022-10-16T16:06:26;2.65;;;1.20;;
37164;SDS011;23057;48.554;14.454;2022-10-16T16:08:57;1.77;;;1.15;;
37164;SDS011;23057;48.554;14.454;2022-10-16T16:11:29;1.92;;;0.90;;
37164;SDS011;23057;48.554;14.454;2022-10-16T16:14:01;2.22;;;1.08;;
37164;SDS011;23057;48.554;14.454;2022-10-16T16:16:32;2.00;;;0.85;;
37164;SDS011;23057;48.554;14.454;2022-10-16T16:19:07;2.75;;;0.98;;
37164;SDS011;23057;48.554;14.454;2022-10-16T16:21:39;3.83;;;1.00;;
37164;SDS011;23057;48.554;14.454;2022-10-16T16:24:10;1.40;;;0.80;;
37164;SDS011;23057;48.554;14.454;2022-10-16T16:26:40;2.60;;;1.33;;
37164;SDS011;23057;48.554;14.454;2022-10-16T16:29:14;3.13;;;1.40;;
37164;SDS011;23057;48.554;14.454;2022-10-16T16:31:46;2.17;;;1.17;;
37164;SDS011;23057;48.554;14.454;2022-10-16T16:34:17;2.55;;;1.52;;
37164;SDS011;23057;48.554;14.454;2022-10-16T16:36:48;5.07;;;1.00;;
37164;SDS011;23057;48.554;14.454;2022-10-16T16:39:19;1.40;;;1.08;;
37164;SDS011;23057;48.554;14.454;2022-10-16T16:41:50;2.47;;;1.10;;
37164;SDS011;23057;48.554;14.454;2022-10-16T16:44:21;3.97;;;1.25;;
37164;SDS011;23057;48.554;14.454;2022-10-16T16:46:52;1.58;;;1.00;;
37164;SDS011;23057;48.554;14.454;2022-10-16T16:49:24;3.67;;;0.93;;
37164;SDS011;23057;48.554;14.454;2022-10-16T16:51:55;3.20;;;1.50;;
37164;SDS011;23057;48.554;14.454;2022-10-16T16:54:26;2.08;;;1.08;;
37164;SDS011;23057;48.554;14.454;2022-10-16T16:56:57;1.77;;;0.88;;
37164;SDS011;23057;48.554;14.454;2022-10-16T16:59:28;1.85;;;1.10;;
37164;SDS011;23057;48.554;14.454;2022-10-16T17:02:02;1.88;;;0.90;;
37164;SDS011;23057;48.554;14.454;2022-10-16T17:04:33;3.97;;;1.58;;
37164;SDS011;23057;48.554;14.454;2022-10-16T17:07:05;3.58;;;1.20;;
37164;SDS011;23057;48.554;14.454;2022-10-16T17:09:36;2.38;;;1.42;;
37164;SDS011;23057;48.554;14.454;2022-10-16T17:12:07;2.15;;;1.58;;
37164;SDS011;23057;48.554;14.454;2022-10-16T17:14:37;2.75;;;1.30;;
37164;SDS011;23057;48.554;14.454;2022-10-16T17:17:09;1.88;;;1.27;;